createdAt,value
2022-11-18T00:01:34.653Z,19.75
2022-11-18T00:04:01.234Z,18.95
2022-11-18T00:06:28.737Z,18.08
2022-11-18T00:08:55.376Z,18.90
2022-11-18T00:11:42.035Z,17.80
2022-11-18T00:14:19.289Z,18.65
2022-11-18T00:16:58.522Z,18.75
2022-11-18T00:19:27.472Z,17.80
2022-11-18T00:21:54.036Z,18.42
2022-11-18T00:24:21.109Z,19.85
2022-11-18T00:26:47.923Z,19.52
2022-11-18T00:29:14.862Z,19.13
2022-11-18T00:31:41.639Z,18.48
2022-11-18T00:34:10.420Z,19.50
2022-11-18T00:36:36.960Z,18.48
2022-11-18T00:39:03.610Z,17.77
2022-11-18T00:41:50.112Z,20.42
2022-11-18T00:44:16.667Z,19.80
2022-11-18T00:46:43.215Z,19.12
2022-11-18T00:49:09.846Z,20.67
2022-11-18T00:51:36.518Z,19.77
2022-11-18T00:54:03.188Z,18.95
2022-11-18T00:56:29.778Z,20.02
2022-11-18T00:58:56.329Z,20.75
2022-11-18T01:01:23.067Z,20.40
2022-11-18T01:03:49.717Z,19.33
2022-11-18T01:06:16.436Z,20.50
2022-11-18T01:08:43.022Z,20.37
2022-11-18T01:11:28.135Z,19.87
2022-11-18T01:13:54.855Z,19.58
2022-11-18T01:16:22.715Z,20.10
2022-11-18T01:21:15.724Z,19.98
2022-11-18T01:23:42.292Z,19.65
2022-11-18T01:26:10.591Z,19.55
2022-11-18T01:28:37.308Z,19.90
2022-11-18T01:31:08.607Z,21.30
2022-11-18T01:33:35.147Z,19.77
2022-11-18T01:36:01.774Z,20.23
2022-11-18T01:38:28.541Z,19.40
2022-11-18T01:40:55.649Z,19.65
2022-11-18T01:43:22.920Z,19.40
2022-11-18T01:45:50.700Z,19.83
2022-11-18T01:50:49.212Z,18.98
2022-11-18T01:53:19.999Z,19.05
2022-11-18T01:55:48.439Z,18.37
2022-11-18T01:58:22.225Z,18.77
2022-11-18T02:00:48.779Z,19.35
2022-11-18T02:03:15.358Z,19.90
2022-11-18T02:05:41.971Z,19.48
2022-11-18T02:08:08.568Z,18.83
2022-11-18T02:10:35.132Z,19.40
2022-11-18T02:13:01.720Z,19.70
2022-11-18T02:15:44.618Z,19.30
2022-11-18T02:18:35.400Z,20.45
2022-11-18T02:21:25.339Z,20.23
2022-11-18T02:24:17.953Z,19.30
2022-11-18T02:27:18.439Z,19.30
2022-11-18T02:29:55.661Z,19.98
2022-11-18T02:32:25.112Z,19.87
2022-11-18T02:35:07.087Z,21.83
2022-11-18T02:37:36.352Z,22.05
2022-11-18T02:40:10.670Z,23.05
2022-11-18T02:42:37.902Z,22.85
2022-11-18T02:45:06.959Z,22.80
2022-11-18T02:47:33.804Z,22.83
2022-11-18T02:50:05.475Z,21.83
2022-11-18T02:52:32.324Z,23.33
2022-11-18T02:54:58.900Z,24.77
2022-11-18T02:57:25.482Z,24.85
2022-11-18T02:59:52.022Z,24.90
2022-11-18T03:02:19.526Z,25.05
2022-11-18T03:04:46.865Z,25.92
2022-11-18T03:07:20.773Z,26.37
2022-11-18T03:09:48.800Z,28.38
2022-11-18T03:12:30.516Z,28.05
2022-11-18T03:15:31.842Z,27.42
2022-11-18T03:18:04.393Z,27.80
2022-11-18T03:20:37.176Z,28.75
2022-11-18T03:23:14.719Z,29.25
2022-11-18T03:25:47.771Z,29.40
2022-11-18T03:28:26.370Z,27.58
2022-11-18T03:31:10.765Z,27.08
2022-11-18T03:33:52.328Z,27.17
2022-11-18T03:36:19.365Z,27.62
2022-11-18T03:38:48.760Z,26.98
2022-11-18T03:41:15.411Z,26.50
2022-11-18T03:43:45.053Z,26.77
2022-11-18T03:46:20.893Z,26.92
2022-11-18T03:48:52.207Z,26.95
2022-11-18T03:51:42.796Z,26.90
2022-11-18T03:54:15.544Z,26.73
2022-11-18T03:56:44.260Z,27.37
2022-11-18T03:59:15.522Z,27.02
2022-11-18T04:01:52.902Z,25.90
2022-11-18T04:04:19.989Z,25.00
2022-11-18T04:07:03.846Z,25.92
2022-11-18T04:09:36.778Z,26.77
2022-11-18T04:12:04.907Z,27.23
2022-11-18T04:14:36.614Z,25.95
2022-11-18T04:17:09.458Z,26.42
2022-11-18T04:19:36.047Z,26.12
2022-11-18T04:22:02.619Z,27.27
2022-11-18T04:24:29.203Z,25.40
2022-11-18T04:26:55.863Z,25.55
2022-11-18T04:29:22.536Z,26.30
2022-11-18T04:31:49.121Z,24.85
2022-11-18T04:34:15.748Z,24.50
2022-11-18T04:36:42.305Z,26.40
2022-11-18T04:39:08.862Z,25.58
2022-11-18T04:41:53.811Z,26.40
2022-11-18T04:44:20.348Z,25.23
2022-11-18T04:46:46.908Z,24.60
2022-11-18T04:49:14.130Z,25.23
2022-11-18T04:51:41.389Z,24.48
2022-11-18T04:54:08.071Z,23.85
2022-11-18T04:56:34.700Z,24.73
2022-11-18T04:59:02.159Z,23.77
2022-11-18T05:01:29.032Z,24.50
2022-11-18T05:03:55.781Z,24.87
2022-11-18T05:06:22.363Z,24.42
2022-11-18T05:08:48.916Z,23.12
2022-11-18T05:11:34.060Z,23.33
2022-11-18T05:14:00.644Z,23.67
2022-11-18T05:16:27.300Z,22.25
2022-11-18T05:18:53.846Z,21.98
2022-11-18T05:21:20.395Z,22.98
2022-11-18T05:23:46.975Z,22.60
2022-11-18T05:26:13.543Z,22.17
2022-11-18T05:28:40.233Z,23.38
2022-11-18T05:31:11.346Z,23.35
2022-11-18T05:33:38.050Z,22.52
2022-11-18T05:36:05.954Z,22.77
2022-11-18T05:38:33.370Z,22.45
2022-11-18T05:41:00.036Z,23.65
2022-11-18T05:43:26.579Z,25.33
2022-11-18T05:45:53.446Z,22.77
2022-11-18T05:48:20.160Z,26.17
2022-11-18T05:50:47.955Z,24.90
2022-11-18T05:55:45.104Z,24.80
2022-11-18T05:58:11.655Z,25.23
2022-11-18T06:00:38.203Z,25.20
2022-11-18T06:03:05.935Z,24.10
2022-11-18T06:07:58.943Z,22.52
2022-11-18T06:10:28.486Z,23.73
2022-11-18T06:12:56.500Z,22.65
2022-11-18T06:15:24.701Z,23.87
2022-11-18T06:18:00.444Z,22.25
2022-11-18T06:20:27.011Z,21.75
2022-11-18T06:22:54.763Z,22.98
2022-11-18T06:27:47.788Z,21.42
2022-11-18T06:30:14.597Z,22.15
2022-11-18T06:32:41.189Z,23.27
2022-11-18T06:35:08.097Z,22.10
2022-11-18T06:37:35.240Z,22.50
2022-11-18T06:40:01.842Z,23.48
2022-11-18T06:42:47.215Z,20.90
2022-11-18T06:45:13.981Z,21.00
2022-11-18T06:47:40.660Z,22.03
2022-11-18T06:50:07.612Z,21.77
2022-11-18T06:52:34.163Z,21.53
2022-11-18T06:55:00.730Z,20.88
2022-11-18T06:57:27.329Z,21.15
2022-11-18T06:59:57.696Z,22.20
2022-11-18T07:02:27.255Z,21.67
2022-11-18T07:04:53.796Z,19.10
2022-11-18T07:07:20.434Z,19.65
2022-11-18T07:09:46.999Z,19.77
2022-11-18T07:12:13.556Z,20.27
2022-11-18T07:14:40.116Z,19.73
2022-11-18T07:17:06.729Z,19.27
2022-11-18T07:19:35.972Z,19.12
2022-11-18T07:22:02.696Z,19.05
2022-11-18T07:24:29.264Z,19.98
2022-11-18T07:26:55.887Z,20.15
2022-11-18T07:29:22.525Z,19.33
2022-11-18T07:31:49.081Z,19.73
2022-11-18T07:34:15.728Z,20.23
2022-11-18T07:36:42.315Z,21.30
2022-11-18T07:39:09.064Z,21.02
2022-11-18T07:41:35.830Z,21.27
2022-11-18T07:44:03.082Z,19.15
2022-11-18T07:46:31.352Z,19.55
2022-11-18T07:48:59.441Z,19.15
2022-11-18T07:51:27.736Z,18.17
2022-11-18T07:53:54.390Z,18.52
2022-11-18T07:56:21.126Z,17.65
2022-11-18T07:58:47.735Z,18.00
2022-11-18T08:01:18.159Z,18.52
2022-11-18T08:03:44.984Z,16.90
2022-11-18T08:06:12.576Z,17.10
2022-11-18T08:08:39.240Z,18.02
2022-11-18T08:11:07.605Z,18.12
2022-11-18T08:13:34.376Z,18.70
2022-11-18T08:16:01.023Z,17.37
2022-11-18T08:18:28.861Z,20.40
2022-11-18T08:23:21.908Z,17.48
2022-11-18T08:25:48.716Z,17.90
2022-11-18T08:28:15.362Z,17.08
2022-11-18T08:30:42.095Z,16.10
2022-11-18T08:33:08.772Z,15.75
2022-11-18T08:35:35.369Z,17.33
2022-11-18T08:38:01.938Z,15.40
2022-11-18T08:40:28.514Z,16.17
2022-11-18T08:42:55.080Z,14.65
2022-11-18T08:45:21.685Z,14.43
2022-11-18T08:47:48.244Z,15.23
2022-11-18T08:50:16.591Z,14.90
2022-11-18T08:52:43.132Z,15.55
2022-11-18T08:55:09.853Z,13.38
2022-11-18T08:57:36.482Z,14.87
2022-11-18T09:00:04.704Z,13.77
2022-11-18T09:02:31.314Z,14.43
2022-11-18T09:04:57.921Z,13.65
2022-11-18T09:07:24.582Z,15.38
2022-11-18T09:09:51.577Z,15.63
2022-11-18T09:12:18.168Z,14.68
2022-11-18T09:17:31.953Z,15.18
2022-11-18T09:19:58.516Z,15.52
2022-11-18T09:22:25.190Z,14.02
2022-11-18T09:24:51.765Z,14.27
2022-11-18T09:27:18.432Z,14.27
2022-11-18T09:29:45.505Z,14.63
2022-11-18T09:32:12.138Z,13.95
2022-11-18T09:34:38.696Z,13.85
2022-11-18T09:37:06.971Z,13.30
2022-11-18T09:39:39.881Z,14.68
2022-11-18T09:42:12.586Z,13.32
2022-11-18T09:45:20.699Z,14.65
2022-11-18T09:47:50.477Z,14.27
2022-11-18T09:50:48.015Z,18.30
2022-11-18T09:53:19.378Z,13.77
2022-11-18T09:55:46.030Z,14.93
2022-11-18T09:58:37.653Z,15.02
2022-11-18T10:01:04.357Z,14.10
2022-11-18T10:03:32.207Z,13.82
2022-11-18T10:09:33.627Z,14.52
2022-11-18T10:12:09.792Z,16.15
2022-11-18T10:14:42.361Z,15.52
2022-11-18T10:17:29.934Z,14.80
2022-11-18T10:20:02.012Z,14.35
2022-11-18T10:22:44.019Z,12.90
2022-11-18T10:25:14.347Z,14.70
2022-11-18T10:27:42.235Z,14.35
2022-11-18T10:30:18.250Z,16.08
2022-11-18T10:33:02.195Z,15.52
2022-11-18T10:35:33.661Z,15.68
2022-11-18T10:38:08.332Z,13.85
2022-11-18T10:40:35.560Z,13.40
2022-11-18T10:43:02.101Z,15.02
2022-11-18T10:45:30.288Z,15.63
2022-11-18T10:48:15.301Z,14.57
2022-11-18T10:50:43.192Z,15.25
2022-11-18T10:53:33.540Z,14.38
2022-11-18T10:56:10.833Z,13.25
2022-11-18T10:58:41.564Z,14.35
2022-11-18T11:01:28.987Z,13.27
2022-11-18T11:03:57.992Z,14.10
2022-11-18T11:06:27.492Z,13.15
2022-11-18T11:08:56.267Z,11.15
2022-11-18T11:11:37.411Z,11.02
2022-11-18T11:14:22.417Z,11.27
2022-11-18T11:16:57.870Z,11.85
2022-11-18T11:19:26.956Z,11.50
2022-11-18T11:21:53.515Z,10.40
2022-11-18T11:24:20.439Z,10.52
2022-11-18T11:30:11.870Z,10.73
2022-11-18T11:32:51.054Z,10.48
2022-11-18T11:35:48.425Z,10.50
2022-11-18T11:38:28.069Z,10.50
2022-11-18T11:41:10.007Z,10.45
2022-11-18T11:43:36.616Z,10.88
2022-11-18T11:46:32.510Z,9.90
2022-11-18T11:49:14.211Z,10.60
2022-11-18T11:52:12.785Z,10.95
2022-11-18T11:54:39.278Z,11.18
2022-11-18T11:57:33.927Z,11.60
2022-11-18T12:00:08.634Z,10.90
2022-11-18T12:02:56.994Z,11.70
2022-11-18T12:05:36.335Z,12.20
2022-11-18T12:08:22.618Z,11.70
2022-11-18T12:10:58.128Z,12.23
2022-11-18T12:13:42.950Z,12.48
2022-11-18T12:16:18.656Z,11.18
2022-11-18T12:18:51.433Z,10.85
2022-11-18T12:21:44.772Z,13.07
2022-11-18T12:24:24.526Z,10.73
2022-11-18T12:26:51.362Z,9.45
2022-11-18T12:29:20.884Z,10.32
2022-11-18T12:32:09.092Z,9.70
2022-11-18T12:34:39.617Z,9.07
2022-11-18T12:37:24.523Z,8.48
2022-11-18T12:39:59.726Z,9.82
2022-11-18T12:42:54.970Z,10.73
2022-11-18T12:45:40.108Z,9.02
2022-11-18T12:48:41.744Z,9.20
2022-11-18T12:51:18.786Z,9.63
2022-11-18T12:53:46.312Z,10.13
2022-11-18T12:56:28.594Z,11.18
2022-11-18T12:58:56.733Z,10.75
2022-11-18T13:01:27.477Z,10.85
2022-11-18T13:04:15.060Z,9.60
2022-11-18T13:06:41.628Z,8.40
2022-11-18T13:09:17.306Z,9.82
2022-11-18T13:11:51.412Z,9.55
2022-11-18T13:14:39.393Z,9.63
2022-11-18T13:17:43.674Z,9.88
2022-11-18T13:20:35.541Z,8.00
2022-11-18T13:23:23.236Z,7.03
2022-11-18T13:25:50.056Z,7.75
2022-11-18T13:28:31.250Z,9.25
2022-11-18T13:31:08.473Z,8.88
2022-11-18T13:33:35.599Z,8.20
2022-11-18T13:36:02.263Z,9.05
2022-11-18T13:38:28.976Z,8.95
2022-11-18T13:41:04.718Z,8.30
2022-11-18T13:43:32.314Z,7.87
2022-11-18T13:46:00.219Z,9.45
2022-11-18T13:48:26.852Z,9.63
2022-11-18T13:50:55.151Z,7.82
2022-11-18T13:53:35.448Z,9.07
2022-11-18T13:56:03.394Z,7.10
2022-11-18T13:58:40.108Z,7.18
2022-11-18T14:01:23.799Z,8.07
2022-11-18T14:04:04.020Z,7.87
2022-11-18T14:06:35.107Z,8.52
2022-11-18T14:09:16.206Z,8.90
2022-11-18T14:11:44.450Z,9.15
2022-11-18T14:14:11.371Z,8.48
2022-11-18T14:16:41.679Z,9.03
2022-11-18T14:19:26.388Z,9.15
2022-11-18T14:21:53.044Z,9.88
2022-11-18T14:24:26.227Z,9.13
2022-11-18T14:26:52.775Z,9.93
2022-11-18T14:29:23.312Z,9.00
2022-11-18T14:32:11.975Z,9.48
2022-11-18T14:34:38.515Z,9.90
2022-11-18T14:37:09.963Z,8.95
2022-11-18T14:39:37.959Z,10.63
2022-11-18T14:42:06.472Z,10.10
2022-11-18T14:44:33.115Z,10.68
2022-11-18T14:47:02.568Z,11.60
2022-11-18T14:49:31.488Z,12.15
2022-11-18T14:51:58.504Z,11.98
2022-11-18T14:54:27.237Z,12.23
2022-11-18T14:56:56.057Z,12.40
2022-11-18T14:59:22.757Z,12.50
2022-11-18T15:01:49.492Z,12.93
2022-11-18T15:04:17.788Z,13.20
2022-11-18T15:06:44.669Z,13.13
2022-11-18T15:09:11.782Z,12.65
2022-11-18T15:11:38.339Z,12.52
2022-11-18T15:14:04.918Z,12.55
2022-11-18T15:16:32.274Z,12.23
2022-11-18T15:19:00.696Z,10.38
2022-11-18T15:21:27.314Z,12.00
2022-11-18T15:23:53.983Z,11.02
2022-11-18T15:26:28.667Z,11.73
2022-11-18T15:28:56.404Z,10.60
2022-11-18T15:31:23.506Z,11.05
2022-11-18T15:33:51.072Z,11.27
2022-11-18T15:36:21.242Z,11.48
2022-11-18T15:38:48.047Z,12.52
2022-11-18T15:41:19.021Z,11.82
2022-11-18T15:43:45.666Z,11.85
2022-11-18T15:46:12.321Z,11.65
2022-11-18T15:48:39.082Z,12.10
2022-11-18T15:51:11.496Z,12.45
2022-11-18T15:53:38.623Z,13.27
2022-11-18T15:56:14.755Z,13.02
2022-11-18T15:58:41.550Z,12.15
2022-11-18T16:01:08.212Z,12.52
2022-11-18T16:03:34.950Z,12.52
2022-11-18T16:06:01.518Z,12.50
2022-11-18T16:08:28.629Z,12.90
2022-11-18T16:11:14.230Z,13.48
2022-11-18T16:13:40.792Z,12.98
2022-11-18T16:16:07.644Z,13.05
2022-11-18T16:18:39.329Z,14.00
2022-11-18T16:21:07.306Z,14.20
2022-11-18T16:23:33.863Z,13.75
2022-11-18T16:26:00.548Z,13.43
2022-11-18T16:28:27.436Z,14.50
2022-11-18T16:31:13.274Z,14.40
2022-11-18T16:33:39.825Z,14.63
2022-11-18T16:36:06.688Z,14.87
2022-11-18T16:38:33.446Z,14.67
2022-11-18T16:41:00.129Z,15.18
2022-11-18T16:43:26.987Z,15.45
2022-11-18T16:45:54.163Z,15.83
2022-11-18T16:48:23.677Z,14.05
2022-11-18T16:51:01.945Z,15.35
2022-11-18T16:53:28.523Z,17.02
2022-11-18T16:56:01.503Z,15.88
2022-11-18T16:58:28.062Z,16.12
2022-11-18T17:01:18.614Z,15.32
2022-11-18T17:03:41.395Z,16.12
2022-11-18T17:06:08.334Z,16.62
2022-11-18T17:08:36.333Z,16.43
2022-11-18T17:11:09.302Z,15.95
2022-11-18T17:13:36.656Z,17.00
2022-11-18T17:16:06.160Z,16.65
2022-11-18T17:18:32.803Z,16.50
2022-11-18T17:21:21.002Z,16.15
2022-11-18T17:23:47.999Z,17.20
2022-11-18T17:26:17.601Z,18.55
2022-11-18T17:28:44.211Z,17.05
2022-11-18T17:31:15.307Z,17.35
2022-11-18T17:33:42.658Z,16.58
2022-11-18T17:36:17.170Z,16.08
2022-11-18T17:38:45.558Z,16.23
2022-11-18T17:41:33.164Z,16.12
2022-11-18T17:43:59.934Z,16.10
2022-11-18T17:46:27.179Z,14.82
2022-11-18T17:48:57.410Z,13.35
2022-11-18T17:51:24.879Z,15.95
2022-11-18T17:53:51.449Z,14.15
2022-11-18T17:56:18.062Z,13.73
2022-11-18T17:58:44.613Z,14.48
2022-11-18T18:01:12.582Z,15.13
2022-11-18T18:03:39.128Z,13.93
2022-11-18T18:06:06.712Z,14.15
2022-11-18T18:08:33.369Z,14.93
2022-11-18T18:11:18.867Z,14.15
2022-11-18T18:14:04.068Z,14.68
2022-11-18T18:16:31.521Z,14.90
2022-11-18T18:18:58.481Z,13.82
2022-11-18T18:21:25.233Z,14.93
2022-11-18T18:23:51.866Z,15.65
2022-11-18T18:26:18.522Z,16.08
2022-11-18T18:28:45.101Z,15.55
2022-11-18T18:31:12.738Z,15.40
2022-11-18T18:33:40.090Z,15.82
2022-11-18T18:36:08.761Z,16.50
2022-11-18T18:38:36.300Z,14.13
2022-11-18T18:41:03.837Z,15.88
2022-11-18T18:43:30.397Z,14.05
2022-11-18T18:46:22.505Z,14.73
2022-11-18T18:48:49.070Z,14.75
2022-11-18T18:51:16.987Z,15.15
2022-11-18T18:53:43.610Z,15.27
2022-11-18T18:56:10.208Z,13.98
2022-11-18T18:58:36.818Z,16.20
2022-11-18T19:01:07.993Z,16.08
2022-11-18T19:03:35.225Z,18.35
2022-11-18T19:09:09.002Z,15.30
2022-11-18T19:11:54.454Z,15.80
2022-11-18T19:14:21.476Z,15.88
2022-11-18T19:16:48.805Z,16.58
2022-11-18T19:19:17.081Z,17.50
2022-11-18T19:21:43.655Z,15.43
2022-11-18T19:24:28.368Z,17.85
2022-11-18T19:26:56.928Z,16.20
2022-11-18T19:29:25.757Z,18.12
2022-11-18T19:31:52.496Z,17.50
2022-11-18T19:34:19.513Z,16.23
2022-11-18T19:36:46.279Z,17.05
2022-11-18T19:39:13.227Z,16.45
2022-11-18T19:41:39.786Z,16.67
2022-11-18T19:44:06.346Z,17.50
2022-11-18T19:46:33.117Z,16.60
2022-11-18T19:48:59.655Z,17.70
2022-11-18T19:51:26.226Z,14.70
2022-11-18T19:53:55.744Z,16.92
2022-11-18T19:56:26.154Z,14.07
2022-11-18T19:58:54.751Z,15.88
2022-11-18T20:01:27.303Z,16.80
2022-11-18T20:03:56.081Z,17.55
2022-11-18T20:06:22.819Z,15.63
2022-11-18T20:08:49.584Z,13.73
2022-11-18T20:11:17.429Z,13.88
2022-11-18T20:16:18.768Z,12.10
2022-11-18T20:18:47.609Z,12.60
2022-11-18T20:21:19.923Z,11.68
2022-11-18T20:23:47.176Z,10.75
2022-11-18T20:26:14.583Z,12.27
2022-11-18T20:28:42.073Z,11.43
2022-11-18T20:31:10.001Z,10.23
2022-11-18T20:33:40.826Z,9.52
2022-11-18T20:36:08.911Z,9.07
2022-11-18T20:38:35.566Z,10.52
2022-11-18T20:41:03.066Z,10.15
2022-11-18T20:43:29.636Z,8.77
2022-11-18T20:45:56.675Z,8.75
2022-11-18T20:48:23.244Z,8.05
2022-11-18T20:50:49.781Z,10.27
2022-11-18T20:53:16.381Z,9.13
2022-11-18T20:55:42.915Z,7.90
2022-11-18T20:58:09.488Z,9.32
2022-11-18T21:00:36.094Z,8.80
2022-11-18T21:03:02.671Z,9.00
2022-11-18T21:05:31.043Z,8.82
2022-11-18T21:07:57.729Z,8.45
2022-11-18T21:10:25.510Z,8.07
2022-11-18T21:15:37.249Z,8.70
2022-11-18T21:18:03.843Z,8.98
2022-11-18T21:20:48.689Z,8.75
2022-11-18T21:23:15.245Z,7.22
2022-11-18T21:25:43.190Z,5.87
2022-11-18T21:28:09.822Z,7.10
2022-11-18T21:30:37.043Z,6.30
2022-11-18T21:33:04.021Z,6.45
2022-11-18T21:35:33.941Z,6.10
2022-11-18T21:38:04.044Z,6.82
2022-11-18T21:40:30.895Z,6.70
2022-11-18T21:42:57.493Z,6.85
2022-11-18T21:45:24.028Z,6.18
2022-11-18T21:47:50.564Z,7.00
2022-11-18T21:50:17.149Z,6.25
2022-11-18T21:52:43.693Z,6.80
2022-11-18T21:55:10.349Z,6.53
2022-11-18T21:57:36.910Z,6.80
2022-11-18T22:00:03.626Z,6.95
2022-11-18T22:02:30.176Z,8.25
2022-11-18T22:04:58.039Z,6.50
2022-11-18T22:09:51.761Z,6.93
2022-11-18T22:12:18.319Z,6.80
2022-11-18T22:14:44.877Z,7.12
2022-11-18T22:17:11.419Z,7.70
2022-11-18T22:19:37.941Z,8.20
2022-11-18T22:22:04.537Z,7.80
2022-11-18T22:24:31.105Z,7.37
2022-11-18T22:26:57.714Z,8.10
2022-11-18T22:29:25.935Z,7.90
2022-11-18T22:31:53.109Z,8.80
2022-11-18T22:34:19.715Z,7.30
2022-11-18T22:36:46.276Z,7.68
2022-11-18T22:39:12.975Z,9.15
2022-11-18T22:41:58.313Z,7.93
2022-11-18T22:44:24.937Z,8.20
2022-11-18T22:46:52.447Z,8.80
2022-11-18T22:49:19.195Z,8.30
2022-11-18T22:51:45.936Z,8.80
2022-11-18T22:56:59.010Z,7.78
2022-11-18T22:59:25.571Z,8.63
2022-11-18T23:01:52.231Z,9.63
2022-11-18T23:04:18.888Z,8.27
2022-11-18T23:06:45.418Z,8.77
2022-11-18T23:09:11.998Z,9.10
2022-11-18T23:11:57.257Z,8.23
2022-11-18T23:14:23.837Z,9.35
2022-11-18T23:16:50.372Z,9.02
2022-11-18T23:19:17.766Z,8.43
2022-11-18T23:21:44.824Z,8.25
2022-11-18T23:24:12.057Z,9.50
2022-11-18T23:26:38.668Z,8.35
2022-11-18T23:29:05.405Z,8.80
2022-11-18T23:31:31.957Z,8.68
2022-11-18T23:33:58.712Z,9.25
2022-11-18T23:36:25.323Z,9.70
2022-11-18T23:38:52.391Z,9.38
2022-11-18T23:41:19.280Z,9.23
2022-11-18T23:43:48.209Z,9.80
2022-11-18T23:46:15.506Z,10.52
2022-11-18T23:48:42.621Z,10.77
2022-11-18T23:51:20.433Z,10.57
2022-11-18T23:53:50.468Z,9.88
2022-11-18T23:56:18.046Z,10.43
2022-11-18T23:58:47.394Z,9.82
